Aviation Club Center

All Aviation. One Place

[ Video] Así esta Aeroparque cubierto de niebla

Hoy 21 de agosto de 2021, Buenos Aires, amaneció cubierta de niebla y el Aeroparque Jorge Newbery no ha sido la excepción. Según METAR que es la forma internacional de informar el clima son las siguientes: ) este METAR corresponde en en el momento que se ha echo eñ video

SABE 191129Z 19006KT 130V250 2000 BR OVC002 13/12 Q1001 NOSIG

Condiciones solo para navegación por instrumentos, Visibilidad de 1.24 millas con nubes desde los 200 mts con bruma (neblina),

A continuación te mostramos un vídeo de nuestros amigos @controladoresaeroparque, gracias amigos